Time;durP1;ratioP1;P1;durP2;ratioP2;P2;SDS_P1;SDS_P2;PMS_P1;PMS_P2;Temp;Humidity;BMP_temperature;BMP_pressure;BME280_temperature;BME280_humidity;BME280_pressure;Samples;Min_cycle;Max_cycle;Signal;HPM_P1;HPM_P2
2024/01/31 00:00:08;;;;;;;;;;;;;;;16.90;59.39;100508.72;2082633;28;19932;-70
2024/01/31 00:01:10;;;;;;;;;;;;;;;16.88;59.46;100495.50;2080393;28;20035;-67
2024/01/31 00:02:11;;;;;;;;;;;;;;;16.89;59.30;100501.69;2079625;28;19935;-68
2024/01/31 00:03:12;;;;;;;;;;;;;;;16.90;59.29;100500.69;2082817;28;20023;-67
2024/01/31 00:04:13;;;;;;;;;;;;;;;16.87;59.26;100496.47;2083042;28;20859;-68
2024/01/31 00:05:15;;;;;;;;;;;;;;;16.88;59.19;100498.16;2084724;28;21036;-67
2024/01/31 00:06:16;;;;;;;;;;;;;;;16.90;59.20;100500.69;2085091;28;19959;-67
2024/01/31 00:07:16;;;;;;;;;;;;;;;16.91;59.08;100497.00;2084056;28;19964;-67
2024/01/31 00:08:18;;;;;;;;;;;;;;;16.89;59.30;100497.16;2074285;28;19956;-67
2024/01/31 00:09:19;;;;;;;;;;;;;;;16.88;59.23;100498.16;2080564;28;20284;-68
2024/01/31 00:10:22;;;;;;;;;;;;;;;16.89;59.21;100497.16;2079460;28;19975;-67
2024/01/31 00:11:23;;;;;;;;;;;;;;;16.86;59.25;100497.47;2084598;28;19932;-67
2024/01/31 00:12:24;;;;;;;;;;;;;;;16.87;59.17;100492.94;2088602;28;20043;-67
2024/01/31 00:13:25;;;;;;;;;;;;;;;16.86;59.34;100491.25;2086629;28;19924;-67
2024/01/31 00:14:27;;;;;;;;;;;;;;;16.85;59.19;100486.88;2085347;28;20513;-68
2024/01/31 00:15:27;;;;;;;;;;;;;;;16.86;59.14;100497.47;2083188;28;19936;-67
2024/01/31 00:16:29;;;;;;;;;;;;;;;16.86;59.16;100493.94;2083323;28;20354;-67
2024/01/31 00:17:30;;;;;;;;;;;;;;;16.86;59.18;100485.91;2085374;28;19982;-67
2024/01/31 00:18:31;;;;;;;;;;;;;;;16.85;59.36;100484.19;2084881;28;19936;-68
2024/01/31 00:19:32;;;;;;;;;;;;;;;16.81;59.25;100490.84;2083501;28;20450;-67
2024/01/31 00:20:34;;;;;;;;;;;;;;;16.84;59.16;100487.88;2084380;28;19983;-68
2024/01/31 00:21:34;;;;;;;;;;;;;;;16.85;59.32;100493.06;2082639;28;19933;-68
2024/01/31 00:22:36;;;;;;;;;;;;;;;16.83;59.20;100480.84;2085743;28;19929;-67
2024/01/31 00:23:36;;;;;;;;;;;;;;;16.84;59.21;100488.72;2083508;28;19933;-67
2024/01/31 00:24:38;;;;;;;;;;;;;;;16.82;59.07;100481.81;2084101;28;20034;-68
2024/01/31 00:25:40;;;;;;;;;;;;;;;16.84;59.06;100477.16;2084985;28;19928;-68
2024/01/31 00:26:42;;;;;;;;;;;;;;;16.83;59.10;100481.69;2078434;28;19940;-68
2024/01/31 00:27:42;;;;;;;;;;;;;;;16.80;59.21;100484.66;2086416;28;19929;-67
2024/01/31 00:28:43;;;;;;;;;;;;;;;16.82;59.11;100485.34;2084369;28;20387;-68
2024/01/31 00:29:44;;;;;;;;;;;;;;;16.80;59.06;100481.97;2083887;28;19935;-68
2024/01/31 00:30:45;;;;;;;;;;;;;;;16.83;58.89;100480.84;2083217;28;19928;-67
2024/01/31 00:31:47;;;;;;;;;;;;;;;16.81;59.00;100480.97;2085464;28;20101;-68
2024/01/31 00:32:47;;;;;;;;;;;;;;;16.80;59.16;100475.75;2084286;28;20395;-68
2024/01/31 00:33:49;;;;;;;;;;;;;;;16.81;59.05;100482.81;2082048;28;19964;-68
2024/01/31 00:34:49;;;;;;;;;;;;;;;16.80;59.01;100481.97;2085515;28;19928;-68
2024/01/31 00:35:52;;;;;;;;;;;;;;;16.80;58.83;100481.09;2085138;28;20051;-67
2024/01/31 00:36:52;;;;;;;;;;;;;;;16.80;59.02;100478.44;2086148;28;19928;-67
2024/01/31 00:37:55;;;;;;;;;;;;;;;16.79;59.04;100485.63;2085216;28;19983;-68
2024/01/31 00:38:55;;;;;;;;;;;;;;;16.78;59.06;100480.44;2086299;28;19933;-68
2024/01/31 00:39:57;;;;;;;;;;;;;;;16.77;59.00;100476.91;2084665;28;20014;-68
2024/01/31 00:40:59;;;;;;;;;;;;;;;16.77;58.95;100478.72;2082772;28;19929;-68
2024/01/31 00:42:01;;;;;;;;;;;;;;;16.75;58.78;100482.38;2083407;28;20567;-69
2024/01/31 00:43:01;;;;;;;;;;;;;;;16.75;59.06;100482.38;2086361;28;26067;-66
2024/01/31 00:44:03;;;;;;;;;;;;;;;16.71;59.06;100483.66;2084968;28;19971;-67
2024/01/31 00:45:04;;;;;;;;;;;;;;;16.72;58.96;100484.50;2084605;28;19950;-67
2024/01/31 00:46:06;;;;;;;;;;;;;;;16.72;59.05;100481.84;2083699;28;19964;-68
2024/01/31 00:47:06;;;;;;;;;;;;;;;16.72;59.08;100485.34;2085894;28;19964;-67
2024/01/31 00:48:08;;;;;;;;;;;;;;;16.72;58.93;100480.00;2084489;28;20363;-68
2024/01/31 00:49:09;;;;;;;;;;;;;;;16.72;59.05;100480.00;2086107;28;20367;-67
2024/01/31 00:50:11;;;;;;;;;;;;;;;16.70;58.98;100487.31;2083538;28;19955;-68
2024/01/31 00:51:12;;;;;;;;;;;;;;;16.70;59.11;100481.13;2084157;28;20500;-68
2024/01/31 00:52:16;;;;;;;;;;;;;;;16.70;59.08;100486.47;2085349;28;20404;-67
2024/01/31 00:53:16;;;;;;;;;;;;;;;16.70;58.92;100484.66;2070451;28;20068;-68
2024/01/31 00:54:18;;;;;;;;;;;;;;;16.69;59.03;100485.66;2078387;28;20570;-67
2024/01/31 00:55:19;;;;;;;;;;;;;;;16.68;59.02;100488.47;2084303;28;19935;-67
2024/01/31 00:56:22;;;;;;;;;;;;;;;16.67;58.93;100484.94;2083301;28;20027;-67
2024/01/31 00:57:22;;;;;;;;;;;;;;;16.65;58.94;100483.41;2085745;28;19936;-67
2024/01/31 00:58:23;;;;;;;;;;;;;;;16.66;59.08;100483.25;2084083;28;20373;-68
2024/01/31 00:59:25;;;;;;;;;;;;;;;16.67;58.95;100484.09;2067267;28;19965;-67
2024/01/31 01:00:26;;;;;;;;;;;;;;;16.65;59.00;100484.22;2085644;28;19932;-68
2024/01/31 01:01:28;;;;;;;;;;;;;;;16.66;59.01;100483.25;2085623;28;19933;-67
2024/01/31 01:02:28;;;;;;;;;;;;;;;16.65;58.98;100480.72;2086043;28;19964;-67
2024/01/31 01:03:30;;;;;;;;;;;;;;;16.64;59.02;100485.22;2084884;28;19933;-68
2024/01/31 01:04:31;;;;;;;;;;;;;;;16.63;59.02;100486.25;2085091;28;20660;-67
2024/01/31 01:05:32;;;;;;;;;;;;;;;16.61;59.04;100488.22;2083543;28;19936;-68
2024/01/31 01:06:33;;;;;;;;;;;;;;;16.60;58.97;100481.13;2081394;28;19932;-67
2024/01/31 01:07:36;;;;;;;;;;;;;;;16.61;59.12;100484.69;2077094;28;19993;-68
2024/01/31 01:08:37;;;;;;;;;;;;;;;16.60;58.98;100478.47;2085086;28;20019;-68
2024/01/31 01:09:38;;;;;;;;;;;;;;;16.60;59.01;100489.19;2085195;28;19933;-67
2024/01/31 01:10:39;;;;;;;;;;;;;;;16.59;59.06;100484.81;2087756;28;20312;-67
2024/01/31 01:11:42;;;;;;;;;;;;;;;16.59;59.05;100483.97;2087756;28;20023;-67
2024/01/31 01:12:43;;;;;;;;;;;;;;;16.58;59.01;100485.81;2084011;28;21007;-68
2024/01/31 01:13:47;;;;;;;;;;;;;;;16.57;58.99;100481.44;2082339;28;20269;-68
2024/01/31 01:14:47;;;;;;;;;;;;;;;16.58;59.01;100485.81;2084659;28;19925;-68
2024/01/31 01:15:49;;;;;;;;;;;;;;;16.57;59.02;100477.91;2081387;28;19940;-67
2024/01/31 01:16:50;;;;;;;;;;;;;;;16.53;58.98;100482.72;2086290;28;19932;-67
2024/01/31 01:17:51;;;;;;;;;;;;;;;16.52;59.03;100479.22;2084896;28;19939;-67
2024/01/31 01:18:52;;;;;;;;;;;;;;;16.53;59.12;100480.06;2084335;28;19932;-67
2024/01/31 01:19:53;;;;;;;;;;;;;;;16.54;58.98;100473.69;2085676;28;20347;-67
2024/01/31 01:21:05;;;;;;;;;;;;;;;16.52;59.05;100470.34;2085000;28;19932;-68
2024/01/31 01:22:07;;;;;;;;;;;;;;;16.51;59.07;100472.16;2083910;28;19933;-67
2024/01/31 01:23:07;;;;;;;;;;;;;;;16.50;59.08;100469.63;2085723;28;19936;-68
2024/01/31 01:24:09;;;;;;;;;;;;;;;16.49;59.08;100471.47;2084604;28;20574;-67
2024/01/31 01:25:10;;;;;;;;;;;;;;;16.49;59.17;100468.78;2083574;28;19932;-67
2024/01/31 01:26:11;;;;;;;;;;;;;;;16.50;59.02;100472.31;2083391;28;20360;-68
2024/01/31 01:27:14;;;;;;;;;;;;;;;16.47;59.02;100472.59;2083087;28;20598;-67
2024/01/31 01:28:15;;;;;;;;;;;;;;;16.47;59.12;100472.59;2085640;28;19932;-67
2024/01/31 01:29:16;;;;;;;;;;;;;;;16.48;59.01;100476.97;2085051;28;20023;-68
2024/01/31 01:30:17;;;;;;;;;;;;;;;16.46;59.05;100478.94;2083898;28;19932;-67
2024/01/31 01:31:19;;;;;;;;;;;;;;;16.45;59.29;100477.25;2086034;28;20031;-67
2024/01/31 01:32:20;;;;;;;;;;;;;;;16.46;59.05;100478.94;2083009;28;20546;-67
2024/01/31 01:33:20;;;;;;;;;;;;;;;16.41;59.27;100475.84;2084117;28;19928;-68
2024/01/31 01:34:22;;;;;;;;;;;;;;;16.41;58.91;100475.84;2084752;28;19952;-67
2024/01/31 01:35:22;;;;;;;;;;;;;;;16.42;59.18;100483.75;2079441;28;19939;-68
2024/01/31 01:36:23;;;;;;;;;;;;;;;16.43;59.16;100489.94;2080429;28;20359;-67
2024/01/31 01:37:25;;;;;;;;;;;;;;;16.41;59.12;100483.88;2082131;28;20161;-67
2024/01/31 01:38:25;;;;;;;;;;;;;;;16.41;59.17;100476.72;2085875;28;19924;-68
2024/01/31 01:39:27;;;;;;;;;;;;;;;16.41;59.04;100475.84;2084659;28;19975;-67
2024/01/31 01:40:27;;;;;;;;;;;;;;;16.40;59.06;100480.34;2083486;28;19928;-67
2024/01/31 01:41:29;;;;;;;;;;;;;;;16.38;59.15;100474.31;2086169;28;19932;-68
2024/01/31 01:42:31;;;;;;;;;;;;;;;16.39;59.05;100477.84;2086083;28;19940;-67
2024/01/31 01:43:33;;;;;;;;;;;;;;;16.39;59.11;100472.47;2083133;28;19971;-68
2024/01/31 01:44:33;;;;;;;;;;;;;;;16.37;59.08;100475.28;2086737;28;19928;-68
2024/01/31 01:45:35;;;;;;;;;;;;;;;16.36;59.00;100473.59;2083136;28;20015;-68
2024/01/31 01:46:36;;;;;;;;;;;;;;;16.36;58.99;100473.59;2085990;28;20571;-67
2024/01/31 01:47:38;;;;;;;;;;;;;;;16.34;59.09;100478.25;2082407;28;20023;-67
2024/01/31 01:48:40;;;;;;;;;;;;;;;16.34;59.05;100480.09;2086627;28;19928;-68
2024/01/31 01:49:41;;;;;;;;;;;;;;;16.34;59.16;100478.25;2086245;28;19928;-67
2024/01/31 01:50:42;;;;;;;;;;;;;;;16.32;59.15;100469.50;2084717;28;19928;-66
2024/01/31 01:51:45;;;;;;;;;;;;;;;16.31;59.11;100471.34;2084579;28;20367;-67
2024/01/31 01:52:46;;;;;;;;;;;;;;;16.31;59.19;100470.50;2086281;28;20019;-67
2024/01/31 01:53:47;;;;;;;;;;;;;;;16.33;59.19;100465.03;2088068;28;19932;-67
2024/01/31 01:54:49;;;;;;;;;;;;;;;16.31;59.09;100470.50;2085430;28;19936;-68
2024/01/31 01:55:50;;;;;;;;;;;;;;;16.30;59.10;100461.66;2065842;28;19951;-67
2024/01/31 01:56:53;;;;;;;;;;;;;;;16.29;58.84;100467.97;2078883;28;20056;-68
2024/01/31 01:57:55;;;;;;;;;;;;;;;16.30;59.15;100460.81;2085639;28;20449;-67
2024/01/31 01:58:57;;;;;;;;;;;;;;;16.28;59.20;100468.13;2088651;28;20823;-68
2024/01/31 01:59:59;;;;;;;;;;;;;;;16.26;59.16;100468.25;2084265;28;19929;-68
2024/01/31 02:01:01;;;;;;;;;;;;;;;16.28;59.15;100468.97;2084199;28;20445;-68
2024/01/31 02:02:01;;;;;;;;;;;;;;;16.25;59.10;100466.56;2084327;28;19932;-68
2024/01/31 02:03:04;;;;;;;;;;;;;;;16.26;59.25;100468.25;2083413;28;20842;-67
2024/01/31 02:04:05;;;;;;;;;;;;;;;16.26;59.15;100462.06;2084238;28;19936;-68
2024/01/31 02:05:06;;;;;;;;;;;;;;;16.25;59.20;100460.38;2084784;28;19929;-68
2024/01/31 02:06:08;;;;;;;;;;;;;;;16.23;59.14;100455.16;2084923;28;20387;-67
2024/01/31 02:07:09;;;;;;;;;;;;;;;16.25;59.18;100452.34;2084528;28;19944;-68
2024/01/31 02:08:10;;;;;;;;;;;;;;;16.22;59.07;100456.16;2083527;28;20622;-67
2024/01/31 02:09:12;;;;;;;;;;;;;;;16.21;59.21;100454.44;2086015;28;19972;-67
2024/01/31 02:10:13;;;;;;;;;;;;;;;16.19;59.16;100459.13;2083802;28;19929;-68
2024/01/31 02:11:14;;;;;;;;;;;;;;;16.18;59.10;100454.75;2082798;28;19944;-68
2024/01/31 02:12:15;;;;;;;;;;;;;;;16.18;59.14;100449.38;2081447;28;20131;-68
2024/01/31 02:13:17;;;;;;;;;;;;;;;16.16;59.36;100450.50;2084957;28;19935;-68
2024/01/31 02:14:19;;;;;;;;;;;;;;;16.11;59.31;100450.13;2084242;28;19964;-67
2024/01/31 02:15:20;;;;;;;;;;;;;;;16.11;59.37;100453.66;2083520;28;19935;-67
2024/01/31 02:16:21;;;;;;;;;;;;;;;16.09;59.36;100443.06;2085171;28;20380;-67
2024/01/31 02:17:22;;;;;;;;;;;;;;;16.08;59.18;100443.22;2087710;28;20979;-67
2024/01/31 02:18:23;;;;;;;;;;;;;;;16.08;59.53;100445.91;2089502;28;20027;-67
2024/01/31 02:19:24;;;;;;;;;;;;;;;16.06;59.47;100445.19;2088036;28;20427;-67
2024/01/31 02:20:25;;;;;;;;;;;;;;;16.01;59.55;100437.56;2082842;28;19928;-67
2024/01/31 02:21:28;;;;;;;;;;;;;;;16.03;59.47;100440.13;2086643;28;20367;-67
2024/01/31 02:22:30;;;;;;;;;;;;;;;16.04;59.53;100442.66;2085108;28;20023;-67
2024/01/31 02:23:32;;;;;;;;;;;;;;;16.03;59.46;100432.09;2084279;28;19925;-67
2024/01/31 02:24:33;;;;;;;;;;;;;;;16.01;59.62;100445.59;2085648;28;20388;-67
2024/01/31 02:25:34;;;;;;;;;;;;;;;15.99;59.60;100446.72;2085755;28;20044;-67
2024/01/31 02:26:35;;;;;;;;;;;;;;;15.98;59.62;100445.91;2084910;28;20011;-67
2024/01/31 02:27:37;;;;;;;;;;;;;;;15.92;59.85;100438.44;2081740;28;20101;-68
2024/01/31 02:28:37;;;;;;;;;;;;;;;15.92;59.69;100440.28;2087154;28;19928;-67
2024/01/31 02:29:41;;;;;;;;;;;;;;;15.92;59.83;100437.59;2087382;28;20142;-67
2024/01/31 02:30:41;;;;;;;;;;;;;;;15.93;59.77;100440.13;2073670;28;19933;-67
2024/01/31 02:31:42;;;;;;;;;;;;;;;15.93;59.64;100439.28;2083691;28;20031;-67
2024/01/31 02:32:44;;;;;;;;;;;;;;;15.89;59.75;100432.53;2072665;28;20039;-67
2024/01/31 02:33:44;;;;;;;;;;;;;;;15.86;59.89;100441.69;2081968;28;20012;-67
2024/01/31 02:34:46;;;;;;;;;;;;;;;15.86;59.71;100439.84;2085983;28;19928;-67
2024/01/31 02:35:46;;;;;;;;;;;;;;;15.86;59.78;100437.19;2083989;28;19933;-67
2024/01/31 02:36:48;;;;;;;;;;;;;;;15.86;59.74;100428.31;2083937;28;20019;-67
2024/01/31 02:37:50;;;;;;;;;;;;;;;15.86;59.85;100431.00;2086886;28;19939;-67
2024/01/31 02:38:52;;;;;;;;;;;;;;;15.84;59.80;100433.78;2085719;28;19935;-67
2024/01/31 02:39:52;;;;;;;;;;;;;;;15.85;59.89;100434.63;2084939;28;20022;-67
2024/01/31 02:40:54;;;;;;;;;;;;;;;15.86;59.83;100431.84;2083782;28;19942;-67
2024/01/31 02:41:54;;;;;;;;;;;;;;;15.85;59.89;100431.97;2086895;28;19929;-67
2024/01/31 02:42:55;;;;;;;;;;;;;;;15.84;59.77;100430.28;2084632;28;20031;-67
2024/01/31 02:43:57;;;;;;;;;;;;;;;15.83;59.90;100432.13;2083180;28;19936;-68
2024/01/31 02:44:57;;;;;;;;;;;;;;;15.83;59.84;100432.13;2089586;28;19928;-67
2024/01/31 02:45:59;;;;;;;;;;;;;;;15.78;60.03;100429.00;2085778;28;20071;-67
2024/01/31 02:46:59;;;;;;;;;;;;;;;15.78;59.92;100433.53;2084348;28;19928;-67
2024/01/31 02:48:01;;;;;;;;;;;;;;;15.78;59.89;100442.41;2083442;28;20378;-67
2024/01/31 02:49:01;;;;;;;;;;;;;;;15.78;59.88;100431.69;2066734;28;19933;-68
2024/01/31 02:50:04;;;;;;;;;;;;;;;15.77;59.90;100432.69;2078840;28;20001;-67
2024/01/31 02:51:04;;;;;;;;;;;;;;;15.78;59.87;100433.53;2082929;28;20011;-68
2024/01/31 02:52:06;;;;;;;;;;;;;;;15.79;59.90;100435.22;2081413;28;19936;-68
2024/01/31 02:53:08;;;;;;;;;;;;;;;15.76;59.86;100427.47;2080436;28;19933;-67
2024/01/31 02:54:10;;;;;;;;;;;;;;;15.76;59.96;100430.13;2082493;28;20727;-67
2024/01/31 02:55:10;;;;;;;;;;;;;;;15.74;59.98;100429.44;2081635;28;19937;-67
2024/01/31 02:56:12;;;;;;;;;;;;;;;15.74;59.93;100426.75;2084509;28;19992;-67
2024/01/31 02:57:12;;;;;;;;;;;;;;;15.75;59.98;100431.13;2084676;28;19947;-67
2024/01/31 02:58:14;;;;;;;;;;;;;;;15.74;59.91;100432.97;2081450;28;20012;-68
2024/01/31 02:59:14;;;;;;;;;;;;;;;15.74;59.92;100438.31;2082464;28;19929;-67
2024/01/31 03:00:15;;;;;;;;;;;;;;;15.74;59.91;100432.97;2082456;28;19968;-67
2024/01/31 03:01:17;;;;;;;;;;;;;;;15.73;59.96;100433.09;2083981;28;19935;-68
2024/01/31 03:02:17;;;;;;;;;;;;;;;15.75;59.85;100436.50;2083910;28;20395;-67
2024/01/31 03:03:19;;;;;;;;;;;;;;;15.74;59.75;100424.06;2082216;28;19963;-68
2024/01/31 03:04:20;;;;;;;;;;;;;;;15.72;59.90;100429.59;2083782;28;19968;-67
2024/01/31 03:05:21;;;;;;;;;;;;;;;15.72;59.86;100432.25;2084943;28;19929;-67
2024/01/31 03:06:22;;;;;;;;;;;;;;;15.68;60.02;100422.81;2082947;28;19932;-67
2024/01/31 03:07:23;;;;;;;;;;;;;;;15.69;59.83;100426.34;2083138;28;20023;-67
2024/01/31 03:08:26;;;;;;;;;;;;;;;15.70;60.00;100428.03;2084120;28;20424;-67
2024/01/31 03:09:27;;;;;;;;;;;;;;;15.68;59.97;100422.81;2086702;28;19928;-67
2024/01/31 03:10:28;;;;;;;;;;;;;;;15.69;59.97;100424.53;2081796;28;19967;-67
2024/01/31 03:11:29;;;;;;;;;;;;;;;15.68;59.94;100425.50;2085157;28;20411;-67
2024/01/31 03:12:30;;;;;;;;;;;;;;;15.69;59.98;100421.84;2084956;28;19967;-67
2024/01/31 03:13:31;;;;;;;;;;;;;;;15.72;59.91;100426.06;2083766;28;19932;-67
2024/01/31 03:14:33;;;;;;;;;;;;;;;15.70;59.79;100423.53;2081229;28;20478;-67
2024/01/31 03:15:33;;;;;;;;;;;;;;;15.69;59.86;100415.66;2064382;28;20403;-67
2024/01/31 03:16:39;;;;;;;;;;;;;;;15.68;59.92;100420.13;2080028;28;19933;-68
2024/01/31 03:17:40;;;;;;;;;;;;;;;15.67;59.88;100418.44;2085146;28;20455;-67
2024/01/31 03:18:40;;;;;;;;;;;;;;;15.68;59.85;100419.28;2084676;28;19986;-67
2024/01/31 03:19:42;;;;;;;;;;;;;;;15.66;59.80;100414.06;2084429;28;19928;-67
2024/01/31 03:20:42;;;;;;;;;;;;;;;15.66;59.74;100411.41;2085295;28;19928;-67
2024/01/31 03:21:44;;;;;;;;;;;;;;;15.66;59.92;100414.06;2086761;28;20487;-67
2024/01/31 03:22:45;;;;;;;;;;;;;;;15.63;59.87;100417.03;2089566;28;19924;-67
2024/01/31 03:23:47;;;;;;;;;;;;;;;15.62;60.04;100413.50;2084316;28;22054;-67
2024/01/31 03:24:48;;;;;;;;;;;;;;;15.59;59.92;100408.44;2082465;28;20426;-67
2024/01/31 03:25:50;;;;;;;;;;;;;;;15.60;60.14;100414.63;2084874;28;19951;-67
2024/01/31 03:26:51;;;;;;;;;;;;;;;15.65;59.98;100415.88;2082879;28;19925;-68
2024/01/31 03:27:52;;;;;;;;;;;;;;;15.64;59.87;100413.38;2083135;28;19969;-67
2024/01/31 03:28:54;;;;;;;;;;;;;;;15.63;59.91;100417.03;2082766;28;20418;-67
2024/01/31 03:30:01;;;;;;;;;;;;;;;15.60;59.96;100409.25;2082800;28;20338;-67
2024/01/31 03:31:02;;;;;;;;;;;;;;;15.62;59.85;100420.69;2081977;28;20023;-67
2024/01/31 03:32:03;;;;;;;;;;;;;;;15.61;59.90;100419.00;2080126;28;19939;-67
2024/01/31 03:33:04;;;;;;;;;;;;;;;15.58;59.86;100419.28;2081023;28;19939;-67
2024/01/31 03:34:06;;;;;;;;;;;;;;;15.56;59.96;100415.91;2070107;28;19939;-68
2024/01/31 03:35:08;;;;;;;;;;;;;;;15.56;60.00;100415.91;2078977;28;19939;-68
2024/01/31 03:36:09;;;;;;;;;;;;;;;15.60;59.94;100419.97;2082418;28;19932;-67
2024/01/31 03:37:11;;;;;;;;;;;;;;;15.57;59.98;100413.09;2082166;28;20327;-67
2024/01/31 03:38:11;;;;;;;;;;;;;;;15.56;59.89;100413.22;2081615;28;19932;-67
2024/01/31 03:39:13;;;;;;;;;;;;;;;15.55;60.05;100411.53;2086036;28;20508;-67
2024/01/31 03:40:15;;;;;;;;;;;;;;;15.55;59.84;100414.22;2081213;28;20347;-67
2024/01/31 03:41:15;;;;;;;;;;;;;;;15.56;60.08;100411.38;2082606;28;19929;-67
2024/01/31 03:42:17;;;;;;;;;;;;;;;15.59;59.87;100404.91;2082627;28;20458;-67
2024/01/31 03:43:17;;;;;;;;;;;;;;;15.58;59.81;100411.25;2084750;28;19929;-67
2024/01/31 03:44:20;;;;;;;;;;;;;;;15.53;59.96;100406.31;2082012;28;20451;-67
2024/01/31 03:45:20;;;;;;;;;;;;;;;15.56;59.98;100406.03;2082442;28;20399;-67
2024/01/31 03:46:22;;;;;;;;;;;;;;;15.53;59.89;100406.31;2079353;28;19939;-67
2024/01/31 03:47:22;;;;;;;;;;;;;;;15.50;59.87;100406.59;2084812;28;19929;-67
2024/01/31 03:48:24;;;;;;;;;;;;;;;15.54;59.89;100404.47;2083874;28;19975;-67
2024/01/31 03:49:25;;;;;;;;;;;;;;;15.52;60.05;100409.16;2080556;28;19967;-67
2024/01/31 03:50:27;;;;;;;;;;;;;;;15.55;60.13;100398.16;2082025;28;20679;-67
2024/01/31 03:51:28;;;;;;;;;;;;;;;15.52;59.98;100403.81;2073569;28;19932;-68
2024/01/31 03:52:30;;;;;;;;;;;;;;;15.52;59.88;100403.81;2073687;28;20087;-68
2024/01/31 03:53:32;;;;;;;;;;;;;;;15.47;59.87;100403.38;2086156;28;19993;-68
2024/01/31 03:54:34;;;;;;;;;;;;;;;15.48;59.88;100408.56;2081618;28;19982;-67
2024/01/31 03:55:35;;;;;;;;;;;;;;;15.50;59.89;100405.75;2084561;28;19960;-67
2024/01/31 03:56:36;;;;;;;;;;;;;;;15.53;59.76;100408.16;2082788;28;20286;-67
2024/01/31 03:57:38;;;;;;;;;;;;;;;15.55;59.68;100409.72;2082079;28;20630;-67
2024/01/31 03:58:38;;;;;;;;;;;;;;;15.59;59.50;100416.44;2085924;28;20658;-67
2024/01/31 03:59:40;;;;;;;;;;;;;;;15.59;59.52;100411.09;2083178;28;20047;-67
2024/01/31 04:00:41;;;;;;;;;;;;;;;15.62;59.51;100405.47;2079028;28;19932;-67
2024/01/31 04:01:43;;;;;;;;;;;;;;;15.62;59.46;100407.31;2083232;28;19928;-67
2024/01/31 04:02:44;;;;;;;;;;;;;;;15.62;59.46;100410.81;2083872;28;19929;-67
2024/01/31 04:03:45;;;;;;;;;;;;;;;15.63;59.42;100407.19;2086193;28;19929;-67
2024/01/31 04:04:46;;;;;;;;;;;;;;;15.65;59.38;100401.66;2080156;28;19928;-67
2024/01/31 04:05:47;;;;;;;;;;;;;;;15.65;59.25;100407.00;2085202;28;19935;-67
2024/01/31 04:06:49;;;;;;;;;;;;;;;15.66;59.29;100406.06;2083546;28;20402;-67
2024/01/31 04:07:50;;;;;;;;;;;;;;;15.69;59.27;100404.97;2085674;28;19929;-67
2024/01/31 04:08:51;;;;;;;;;;;;;;;15.70;59.36;100402.13;2081967;28;20344;-67
2024/01/31 04:09:53;;;;;;;;;;;;;;;15.73;59.19;100401.84;2076502;28;20024;-67
2024/01/31 04:10:55;;;;;;;;;;;;;;;15.76;59.12;100401.56;2074955;28;20019;-67
2024/01/31 04:11:55;;;;;;;;;;;;;;;15.78;59.20;100396.06;2080816;28;19933;-67
2024/01/31 04:12:57;;;;;;;;;;;;;;;15.81;59.25;100395.78;2086160;28;19979;-67
2024/01/31 04:13:58;;;;;;;;;;;;;;;15.83;59.24;100400.00;2087824;28;19939;-67
2024/01/31 04:14:59;;;;;;;;;;;;;;;15.85;59.14;100398.03;2084800;28;20658;-67
2024/01/31 04:16:00;;;;;;;;;;;;;;;15.89;59.12;100395.06;2086876;28;20835;-67
2024/01/31 04:17:01;;;;;;;;;;;;;;;15.92;59.09;100402.81;2084932;28;19928;-67
2024/01/31 04:18:03;;;;;;;;;;;;;;;15.95;59.06;100394.50;2087238;28;19943;-67
2024/01/31 04:19:05;;;;;;;;;;;;;;;15.99;58.96;100395.88;2089377;28;19940;-67
2024/01/31 04:20:06;;;;;;;;;;;;;;;16.03;58.90;100399.97;2087053;28;19942;-67
2024/01/31 04:21:08;;;;;;;;;;;;;;;16.05;58.94;100393.50;2086459;28;20581;-67
2024/01/31 04:22:08;;;;;;;;;;;;;;;16.08;58.91;100393.22;2085717;28;19928;-67
2024/01/31 04:23:10;;;;;;;;;;;;;;;16.12;58.99;100388.41;2087861;28;19963;-67
2024/01/31 04:24:11;;;;;;;;;;;;;;;16.13;58.84;100383.88;2087846;28;19928;-67
2024/01/31 04:25:14;;;;;;;;;;;;;;;16.16;58.87;100380.91;2090606;28;19956;-68
2024/01/31 04:26:14;;;;;;;;;;;;;;;16.18;58.90;100387.81;2087937;28;19932;-67
2024/01/31 04:27:16;;;;;;;;;;;;;;;16.20;58.83;100383.16;2079218;28;20376;-68
2024/01/31 04:28:18;;;;;;;;;;;;;;;16.22;58.76;100386.56;2082493;28;19928;-67
2024/01/31 04:29:20;;;;;;;;;;;;;;;16.24;58.88;100384.59;2080720;28;19936;-67
2024/01/31 04:30:21;;;;;;;;;;;;;;;16.26;58.71;100387.94;2083729;28;19959;-67
2024/01/31 04:31:22;;;;;;;;;;;;;;;16.28;58.74;100382.44;2085879;28;20022;-67
2024/01/31 04:32:23;;;;;;;;;;;;;;;16.31;58.80;100382.16;2083937;28;19935;-67
2024/01/31 04:33:24;;;;;;;;;;;;;;;16.33;58.81;100382.03;2085418;28;20431;-67
2024/01/31 04:34:25;;;;;;;;;;;;;;;16.36;58.80;100387.09;2086808;28;20638;-67
2024/01/31 04:35:26;;;;;;;;;;;;;;;16.39;58.67;100384.09;2070830;28;19986;-67
2024/01/31 04:36:28;;;;;;;;;;;;;;;16.40;58.67;100385.78;2083443;28;20393;-67
2024/01/31 04:37:28;;;;;;;;;;;;;;;16.43;58.60;100388.16;2083413;28;22084;-67
2024/01/31 04:38:30;;;;;;;;;;;;;;;16.45;58.71;100391.53;2083158;28;19960;-68
2024/01/31 04:39:31;;;;;;;;;;;;;;;16.46;58.68;100396.75;2082477;28;19986;-67
2024/01/31 04:40:34;;;;;;;;;;;;;;;16.49;58.63;100392.94;2086691;28;19932;-67
2024/01/31 04:41:35;;;;;;;;;;;;;;;16.51;58.59;100393.63;2087936;28;19928;-67
2024/01/31 04:42:37;;;;;;;;;;;;;;;16.53;58.68;100394.34;2085949;28;19929;-67
2024/01/31 04:43:37;;;;;;;;;;;;;;;16.54;58.63;100385.28;2087974;28;20303;-67
2024/01/31 04:44:39;;;;;;;;;;;;;;;16.57;58.65;100385.00;2081271;28;20071;-67
2024/01/31 04:45:40;;;;;;;;;;;;;;;16.59;58.57;100384.88;2087494;28;19936;-65
2024/01/31 04:46:41;;;;;;;;;;;;;;;16.60;58.58;100389.22;2085476;28;20023;-68
2024/01/31 04:47:42;;;;;;;;;;;;;;;16.61;58.59;100381.06;2084136;28;20047;-67
2024/01/31 04:48:43;;;;;;;;;;;;;;;16.64;58.69;100383.44;2086506;28;20013;-67
2024/01/31 04:49:44;;;;;;;;;;;;;;;16.66;58.48;100378.78;2078208;28;19945;-68
2024/01/31 04:50:46;;;;;;;;;;;;;;;16.67;58.67;100385.81;2082139;28;20003;-68
2024/01/31 04:51:46;;;;;;;;;;;;;;;16.71;58.52;100383.66;2082479;28;19932;-67
2024/01/31 04:52:48;;;;;;;;;;;;;;;16.72;58.51;100388.06;2084163;28;20527;-67
2024/01/31 04:53:48;;;;;;;;;;;;;;;16.74;58.44;100391.41;2087222;28;19928;-67
2024/01/31 04:54:51;;;;;;;;;;;;;;;16.75;58.57;100393.94;2091116;28;20000;-68
2024/01/31 04:55:53;;;;;;;;;;;;;;;16.78;58.53;100389.31;2088340;28;19929;-67
2024/01/31 04:56:55;;;;;;;;;;;;;;;16.79;58.53;100393.69;2087962;28;20501;-68
2024/01/31 04:57:55;;;;;;;;;;;;;;;16.83;58.50;100392.41;2086550;28;19928;-67
2024/01/31 04:58:56;;;;;;;;;;;;;;;16.85;58.52;100393.91;2081526;28;20446;-68
2024/01/31 04:59:58;;;;;;;;;;;;;;;16.85;58.36;100385.03;2088710;28;20117;-68
2024/01/31 05:00:58;;;;;;;;;;;;;;;16.87;58.32;100391.09;2089181;28;20302;-68
2024/01/31 05:01:59;;;;;;;;;;;;;;;16.88;58.30;100384.75;2090349;28;19928;-67
2024/01/31 05:03:00;;;;;;;;;;;;;;;16.91;58.44;100387.97;2090087;28;20333;-67
2024/01/31 05:04:01;;;;;;;;;;;;;;;16.91;58.51;100381.75;2091041;28;19924;-68
2024/01/31 05:05:02;;;;;;;;;;;;;;;16.94;58.38;100384.16;2081294;28;21069;-67
2024/01/31 05:06:03;;;;;;;;;;;;;;;16.94;58.44;100378.81;2086339;28;20272;-67
2024/01/31 05:07:04;;;;;;;;;;;;;;;16.97;58.33;100378.50;2082091;28;20032;-68
2024/01/31 05:08:06;;;;;;;;;;;;;;;16.97;58.36;100375.81;2075449;28;20154;-68
2024/01/31 05:09:06;;;;;;;;;;;;;;;16.98;58.35;100380.19;2080201;28;19947;-68
2024/01/31 05:10:08;;;;;;;;;;;;;;;16.99;58.48;100376.50;2081048;28;19947;-67
2024/01/31 05:11:14;;;;;;;;;;;;;;;16.99;58.51;100373.81;2083082;28;19976;-68
2024/01/31 05:12:15;;;;;;;;;;;;;;;17.00;58.36;100375.50;2085207;28;20166;-68
2024/01/31 05:13:16;;;;;;;;;;;;;;;17.01;58.53;100382.56;2085688;28;20288;-67
2024/01/31 05:14:18;;;;;;;;;;;;;;;17.01;58.39;100385.22;2083370;28;19960;-67